WetterOnline ( https://www.wetteronline.de )

Wetter aktuell Königsee

Aktuelles Wetter: Neuhaus (851m)

6-stündlich | Neueste Meldungen
Ortszeit Temperatur Wetter
Sa, 31.07. 2:00 16.1° C bedeckt
Fr, 30.07. 20:00 20.0° C wolkenlos
Fr, 30.07. 14:00 19.3° C leicht bewölkt
Fr, 30.07. 8:00 13.1° C fast wolkenlos
Fr, 30.07. 2:00 12.0° C bewölkt
Do, 29.07. 20:00 15.6° C fast wolkenlos
Do, 29.07. 14:00 16.9° C wolkig
Do, 29.07. 8:00 12.2° C bedeckt
Ortszeit Temperatur Wetter
Sa, 31.07. 2:30 15.5° C bewölkt
Sa, 31.07. 2:20 15.5° C bewölkt
Sa, 31.07. 2:10 15.8° C bedeckt
Sa, 31.07. 2:00 16.1° C bedeckt
Sa, 31.07. 1:50 16.1° C bedeckt
Sa, 31.07. 1:40 16.2° C bedeckt
Sa, 31.07. 1:30 16.1° C bedeckt
Sa, 31.07. 1:00 16.1° C bedeckt
Sa, 31.07. 0:30 15.9° C wolkig
Sa, 31.07. 0:00 16.0° C wolkenlos
Fr, 30.07. 23:30 16.3° C wolkenlos
Ortszeit Relative Feuchte Sichtweite
Sa, 31.07. 2:00 71% 50 km
Fr, 30.07. 20:00 57% 50 km
Fr, 30.07. 14:00 56% 65 km
Fr, 30.07. 8:00 72% 45 km
Fr, 30.07. 2:00 73% 60 km
Do, 29.07. 20:00 58% 60 km
Do, 29.07. 14:00 56% 50 km
Do, 29.07. 8:00 92% 29 km
Ortszeit Relative Feuchte Sichtweite
Sa, 31.07. 2:30 72% 55 km
Sa, 31.07. 2:20 72% -
Sa, 31.07. 2:10 72% -
Sa, 31.07. 2:00 71% 50 km
Sa, 31.07. 1:50 71% -
Sa, 31.07. 1:40 71% -
Sa, 31.07. 1:30 72% 55 km
Sa, 31.07. 1:00 73% 45 km
Sa, 31.07. 0:30 73% 50 km
Sa, 31.07. 0:00 73% 45 km
Fr, 30.07. 23:30 71% 55 km
Ortszeit Niederschlagsmenge Niederschlagsart
Sa, 31.07. 2:00 0.0 l/m2 in 6 Std. -
Fr, 30.07. 20:00 0.0 l/m2 in 12 Std. -
Fr, 30.07. 14:00 0.0 l/m2 in 6 Std. -
Fr, 30.07. 8:00 0.0 l/m2 in 12 Std. -
Fr, 30.07. 2:00 0.0 l/m2 in 6 Std. -
Do, 29.07. 20:00 0.0 l/m2 in 12 Std. -
Do, 29.07. 14:00 0.0 l/m2 in 6 Std. -
Do, 29.07. 8:00 0.1 l/m2 in 12 Std. Regen
Ortszeit Niederschlagsmenge Niederschlagsart
Sa, 31.07. 2:30 0.0 l/m2 in 1 Std. -
Sa, 31.07. 2:20 keine Meldung -
Sa, 31.07. 2:10 keine Meldung -
Sa, 31.07. 2:00 0.0 l/m2 in 1 Std. -
Sa, 31.07. 1:50 keine Meldung -
Sa, 31.07. 1:40 keine Meldung -
Sa, 31.07. 1:30 0.0 l/m2 in 1 Std. -
Sa, 31.07. 1:00 0.0 l/m2 in 1 Std. -
Sa, 31.07. 0:30 0.0 l/m2 in 1 Std. -
Sa, 31.07. 0:00 0.0 l/m2 in 1 Std. -
Fr, 30.07. 23:30 0.0 l/m2 in 1 Std. -
Ortszeit Stärke Spitze Richtung
km/h Bft. km/h Grad Sektor
Sa, 31.07. 2:00 13 3 31 230° SW
Fr, 30.07. 20:00 18 3 40 220° SW
Fr, 30.07. 14:00 18 3 40 190° S
Fr, 30.07. 8:00 7 2 14 180° S
Fr, 30.07. 2:00 9 2 26 240° SW
Do, 29.07. 20:00 17 3 48 240° SW
Do, 29.07. 14:00 20 4 50 240° SW
Do, 29.07. 8:00 14 3 40 200° S
Ortszeit Stärke Spitze Richtung
km/h Bft. km/h Grad Sektor
Sa, 31.07. 2:30 14 3 25 230° SW
Sa, 31.07. 2:20 14 3 - 230° SW
Sa, 31.07. 2:10 13 3 - 240° SW
Sa, 31.07. 2:00 13 3 24 230° SW
Sa, 31.07. 1:50 13 3 - 230° SW
Sa, 31.07. 1:40 14 3 - 230° SW
Sa, 31.07. 1:30 14 3 22 220° SW
Sa, 31.07. 1:00 7 2 19 220° SW
Sa, 31.07. 0:30 11 2 18 230° SW
Sa, 31.07. 0:00 13 3 26 240° SW
Fr, 30.07. 23:30 11 2 22 240° SW
Ortszeit Untergrenze Bedeckung Gattung
total tief tief mittel hoch
Sa, 31.07. 2:00 1020 m 8/8 8/8 - - -
Fr, 30.07. 20:00 - 0/8 0/8 - - -
Fr, 30.07. 14:00 1020 m 2/8 2/8 - - -
Fr, 30.07. 8:00 9000 m 2/8 0/8 - - -
Fr, 30.07. 2:00 6300 m 8/8 5/8 - - -
Do, 29.07. 20:00 1290 m 1/8 1/8 - - -
Do, 29.07. 14:00 1050 m 6/8 6/8 - - -
Do, 29.07. 8:00 150 m 8/8 8/8 - - -
Ortszeit Bedeckungsgrad in Achtel und Wolkenuntergrenze
Sa, 31.07. 2:30 1(1140m) 6(1500m) 7(1800m)
Sa, 31.07. 2:20 1(1140m) 6(1500m) 7(1800m)
Sa, 31.07. 2:10 1(1050m) 6(1500m) 8(1800m)
Sa, 31.07. 2:00 2(1020m) 3(1290m) 8(1500m)
Sa, 31.07. 1:50 2(1020m) 3(1290m) 8(1500m)
Sa, 31.07. 1:40 1(1020m) 4(1290m) 8(1500m)
Sa, 31.07. 1:30 7(1350m) 8(1500m)
Sa, 31.07. 1:00 8(1800m) 8(1800m)
Sa, 31.07. 0:30 5(1800m)
Sa, 31.07. 0:00 keine Wolken
Fr, 30.07. 23:30 keine Wolken
Ortszeit Stationsdruck (hPa) Tendenz (hPa in 3 Std.)
Sa, 31.07. 2:00 913 + 0,3
Fr, 30.07. 20:00 913 - 0,3
Fr, 30.07. 14:00 915 - 0,8
Fr, 30.07. 8:00 916 - 0,2
Fr, 30.07. 2:00 916 - 0,5
Do, 29.07. 20:00 917 + 0,1
Do, 29.07. 14:00 917 0,0
Do, 29.07. 8:00 917 + 0,2
Ortszeit Stationsdruck (hPa) Tendenz (hPa in 3 Std.)
Sa, 31.07. 2:30 913 + 0,2
Sa, 31.07. 2:20 913 keine Meldung
Sa, 31.07. 2:10 913 keine Meldung
Sa, 31.07. 2:00 913 + 0,3
Sa, 31.07. 1:50 913 keine Meldung
Sa, 31.07. 1:40 913 keine Meldung
Sa, 31.07. 1:30 913 + 0,3
Sa, 31.07. 1:00 913 + 0,6
Sa, 31.07. 0:30 913 + 0,8
Sa, 31.07. 0:00 913 + 0,5
Fr, 30.07. 23:30 913 + 0,5
Ortszeit Schneehöhe (cm)
Sa, 31.07. 2:00 -
Fr, 30.07. 20:00 -
Fr, 30.07. 14:00 -
Fr, 30.07. 8:00 -
Fr, 30.07. 2:00 -
Do, 29.07. 20:00 -
Do, 29.07. 14:00 -
Do, 29.07. 8:00 -
Ortszeit Schneehöhe (cm)
Sa, 31.07. 2:30 -
Sa, 31.07. 2:20 -
Sa, 31.07. 2:10 -
Sa, 31.07. 2:00 -
Sa, 31.07. 1:50 -
Sa, 31.07. 1:40 -
Sa, 31.07. 1:30 -
Sa, 31.07. 1:00 -
Sa, 31.07. 0:30 -
Sa, 31.07. 0:00 -
Fr, 30.07. 23:30 -
Link zu dieser Seite / Seite empfehlen

Das Wetter in ...